createdAt,value
2022-12-19T00:01:16.123Z,32.87
2022-12-19T00:03:48.509Z,33.40
2022-12-19T00:06:17.512Z,33.70
2022-12-19T00:08:46.797Z,33.97
2022-12-19T00:11:17.705Z,33.60
2022-12-19T00:13:46.310Z,34.20
2022-12-19T00:16:17.689Z,33.87
2022-12-19T00:18:50.443Z,33.47
2022-12-19T00:21:25.163Z,32.67
2022-12-19T00:23:53.809Z,32.73
2022-12-19T00:26:25.268Z,34.23
2022-12-19T00:28:55.873Z,34.00
2022-12-19T00:31:26.105Z,32.33
2022-12-19T00:33:54.259Z,32.63
2022-12-19T00:36:23.910Z,33.90
2022-12-19T00:38:53.417Z,33.47
2022-12-19T00:41:24.541Z,32.43
2022-12-19T00:43:54.375Z,33.20
2022-12-19T00:46:22.778Z,33.33
2022-12-19T00:48:50.938Z,33.23
2022-12-19T00:51:21.031Z,31.97
2022-12-19T00:53:50.743Z,32.93
2022-12-19T00:56:21.357Z,33.43
2022-12-19T00:58:51.222Z,32.80
2022-12-19T01:01:21.619Z,33.73
2022-12-19T01:04:19.116Z,31.97
2022-12-19T01:06:37.975Z,35.00
2022-12-19T01:09:08.546Z,33.73
2022-12-19T01:11:53.893Z,32.97
2022-12-19T01:14:23.608Z,34.33
2022-12-19T01:16:52.576Z,33.13
2022-12-19T01:19:21.339Z,33.00
2022-12-19T01:21:49.277Z,33.80
2022-12-19T01:24:19.222Z,32.43
2022-12-19T01:26:47.555Z,32.37
2022-12-19T01:29:15.710Z,32.33
2022-12-19T01:31:45.106Z,33.50
2022-12-19T01:34:13.645Z,33.43
2022-12-19T01:36:41.700Z,34.43
2022-12-19T01:39:09.997Z,34.73
2022-12-19T01:41:38.897Z,35.60
2022-12-19T01:44:08.958Z,35.40
2022-12-19T01:46:39.517Z,35.03
2022-12-19T01:49:16.412Z,34.67
2022-12-19T01:51:49.785Z,35.70
2022-12-19T01:54:22.709Z,36.33
2022-12-19T01:56:52.968Z,35.77
2022-12-19T01:59:24.571Z,34.53
2022-12-19T02:02:00.109Z,35.00
2022-12-19T02:04:32.438Z,35.47
2022-12-19T02:07:10.810Z,36.00
2022-12-19T02:09:46.424Z,36.43
2022-12-19T02:12:17.806Z,35.17
2022-12-19T02:14:46.088Z,35.50
2022-12-19T02:17:22.930Z,34.00
2022-12-19T02:20:22.267Z,37.33
2022-12-19T02:23:05.262Z,38.03
2022-12-19T02:25:58.690Z,36.57
2022-12-19T02:28:54.424Z,37.47
2022-12-19T02:31:30.202Z,35.70
2022-12-19T02:34:05.081Z,37.93
2022-12-19T02:36:40.299Z,36.13
2022-12-19T02:39:12.857Z,38.60
2022-12-19T02:41:46.815Z,35.80
2022-12-19T02:44:20.035Z,36.80
2022-12-19T02:46:51.024Z,36.83
2022-12-19T02:49:20.707Z,37.10
2022-12-19T02:51:58.394Z,37.30
2022-12-19T02:54:26.745Z,35.20
2022-12-19T02:57:00.810Z,37.83
2022-12-19T02:59:41.615Z,36.60
2022-12-19T03:02:22.566Z,38.90
2022-12-19T03:04:59.507Z,35.57
2022-12-19T03:07:34.958Z,37.57
2022-12-19T03:10:10.364Z,37.13
2022-12-19T03:12:44.950Z,38.87
2022-12-19T03:15:15.452Z,37.37
2022-12-19T03:17:45.225Z,38.33
2022-12-19T03:20:23.075Z,39.33
2022-12-19T03:22:51.405Z,37.83
2022-12-19T03:25:21.857Z,39.87
2022-12-19T03:27:53.244Z,39.03
2022-12-19T03:30:21.392Z,38.67
2022-12-19T03:32:51.043Z,37.97
2022-12-19T03:35:25.775Z,39.00
2022-12-19T03:37:59.916Z,39.07
2022-12-19T03:40:29.856Z,38.73
2022-12-19T03:43:11.239Z,39.23
2022-12-19T03:45:57.388Z,39.70
2022-12-19T03:48:31.058Z,38.00
2022-12-19T03:51:09.520Z,37.33
2022-12-19T03:53:49.002Z,38.50
2022-12-19T03:56:25.631Z,37.30
2022-12-19T03:58:59.650Z,37.23
2022-12-19T04:01:29.839Z,37.70
2022-12-19T04:04:00.127Z,36.37
2022-12-19T04:06:31.111Z,36.33
2022-12-19T04:09:00.218Z,38.83
2022-12-19T04:11:30.906Z,36.10
2022-12-19T04:14:05.229Z,36.10
2022-12-19T04:16:46.991Z,35.03
2022-12-19T04:19:21.916Z,37.03
2022-12-19T04:21:56.371Z,34.90
2022-12-19T04:24:29.721Z,36.80
2022-12-19T04:26:59.787Z,36.30
2022-12-19T04:29:29.261Z,36.43
2022-12-19T04:31:59.284Z,35.73
2022-12-19T04:34:28.645Z,36.03
2022-12-19T04:36:58.543Z,36.33
2022-12-19T04:39:26.667Z,37.53
2022-12-19T04:41:56.539Z,35.70
2022-12-19T04:44:27.188Z,37.20
2022-12-19T04:46:55.434Z,36.30
2022-12-19T04:49:23.481Z,36.87
2022-12-19T04:51:53.707Z,37.13
2022-12-19T04:54:22.476Z,37.30
2022-12-19T04:56:50.430Z,38.97
2022-12-19T04:59:18.340Z,37.07
2022-12-19T05:01:48.385Z,37.33
2022-12-19T05:04:16.921Z,36.70
2022-12-19T05:06:44.924Z,36.97
2022-12-19T05:09:14.425Z,36.53
2022-12-19T05:11:42.304Z,36.97
2022-12-19T05:14:13.091Z,37.40
2022-12-19T05:16:41.116Z,38.33
2022-12-19T05:19:09.214Z,39.23
2022-12-19T05:21:37.119Z,36.87
2022-12-19T05:24:05.708Z,37.43
2022-12-19T05:26:35.103Z,37.37
2022-12-19T05:29:03.386Z,35.10
2022-12-19T05:31:31.455Z,36.93
2022-12-19T05:33:59.386Z,36.53
2022-12-19T05:36:32.265Z,36.60
2022-12-19T05:39:00.658Z,36.00
2022-12-19T05:41:28.623Z,35.97
2022-12-19T05:43:58.021Z,36.83
2022-12-19T05:46:27.769Z,36.13
2022-12-19T05:48:55.878Z,34.50
2022-12-19T05:51:24.441Z,36.33
2022-12-19T05:53:52.576Z,35.13
2022-12-19T05:56:22.440Z,36.40
2022-12-19T05:58:52.156Z,37.23
2022-12-19T06:01:23.852Z,36.80
2022-12-19T06:03:52.532Z,34.63
2022-12-19T06:06:26.026Z,36.43
2022-12-19T06:08:54.748Z,35.20
2022-12-19T06:11:25.587Z,35.73
2022-12-19T06:13:53.929Z,37.00
2022-12-19T06:16:24.366Z,37.67
2022-12-19T06:18:52.596Z,37.70
2022-12-19T06:21:22.815Z,38.10
2022-12-19T06:23:51.024Z,37.80
2022-12-19T06:26:20.962Z,35.63
2022-12-19T06:28:49.462Z,39.00
2022-12-19T06:31:18.520Z,37.30
2022-12-19T06:33:47.951Z,34.80
2022-12-19T06:36:19.719Z,35.37
2022-12-19T06:38:47.973Z,37.87
2022-12-19T06:41:33.767Z,36.90
2022-12-19T06:44:02.815Z,38.50
2022-12-19T06:46:31.128Z,37.57
2022-12-19T06:49:00.989Z,37.60
2022-12-19T06:51:29.193Z,37.47
2022-12-19T06:54:00.394Z,38.43
2022-12-19T06:56:28.675Z,39.47
2022-12-19T06:58:57.216Z,38.87
2022-12-19T07:01:38.635Z,36.67
2022-12-19T07:04:08.668Z,37.77
2022-12-19T07:06:36.987Z,36.90
2022-12-19T07:09:06.101Z,37.30
2022-12-19T07:11:34.173Z,40.67
2022-12-19T07:14:05.692Z,36.77
2022-12-19T07:16:36.990Z,36.63
2022-12-19T07:19:07.548Z,38.03
2022-12-19T07:21:39.547Z,36.83
2022-12-19T07:24:09.005Z,36.07
2022-12-19T07:26:37.441Z,36.50
2022-12-19T07:29:09.495Z,34.50
2022-12-19T07:31:39.579Z,34.40
2022-12-19T07:34:10.124Z,37.03
2022-12-19T07:36:40.180Z,37.33
2022-12-19T07:39:12.866Z,37.90
2022-12-19T07:41:40.983Z,39.17
2022-12-19T07:44:09.474Z,39.90
2022-12-19T07:46:40.313Z,36.57
2022-12-19T07:49:10.076Z,37.67
2022-12-19T07:51:39.971Z,36.33
2022-12-19T07:54:09.959Z,36.73
2022-12-19T07:56:39.489Z,38.07
2022-12-19T07:59:07.909Z,35.13
2022-12-19T08:01:37.632Z,36.20
2022-12-19T08:04:05.705Z,34.67
2022-12-19T08:06:40.613Z,37.63
2022-12-19T08:09:09.326Z,37.30
2022-12-19T08:11:37.331Z,37.43
2022-12-19T08:14:05.336Z,35.70
2022-12-19T08:16:49.309Z,34.87
2022-12-19T08:19:27.183Z,35.83
2022-12-19T08:21:56.844Z,35.30
2022-12-19T08:24:24.721Z,35.47
2022-12-19T08:26:54.748Z,35.10
2022-12-19T08:29:22.728Z,37.97
2022-12-19T08:31:50.875Z,36.83
2022-12-19T08:34:18.947Z,35.70
2022-12-19T08:36:50.182Z,34.40
2022-12-19T08:39:19.625Z,35.43
2022-12-19T08:41:47.716Z,35.47
2022-12-19T08:44:17.665Z,33.20
2022-12-19T08:46:49.971Z,37.03
2022-12-19T08:49:19.662Z,34.90
2022-12-19T08:51:48.009Z,34.93
2022-12-19T08:54:16.096Z,34.00
2022-12-19T08:56:46.888Z,35.33
2022-12-19T08:59:18.716Z,35.40
2022-12-19T09:01:53.658Z,33.87
2022-12-19T09:05:59.848Z,33.43
2022-12-19T09:07:15.740Z,33.23
2022-12-19T09:09:44.548Z,33.30
2022-12-19T09:12:16.209Z,34.43
2022-12-19T09:14:45.152Z,32.83
2022-12-19T09:17:13.643Z,34.93
2022-12-19T09:19:47.644Z,33.93
2022-12-19T09:22:17.213Z,35.53
2022-12-19T09:24:45.484Z,35.30
2022-12-19T09:27:14.955Z,33.60
2022-12-19T09:29:43.612Z,34.57
2022-12-19T09:32:13.357Z,33.03
2022-12-19T09:34:41.428Z,37.60
2022-12-19T09:37:16.270Z,35.60
2022-12-19T09:39:47.211Z,33.63
2022-12-19T09:42:41.139Z,33.80
2022-12-19T09:45:37.364Z,34.57
2022-12-19T09:48:06.063Z,34.57
2022-12-19T09:50:47.509Z,33.80
2022-12-19T09:53:22.292Z,34.10
2022-12-19T09:55:53.656Z,35.67
2022-12-19T09:58:32.626Z,33.63
2022-12-19T10:01:03.631Z,38.13
2022-12-19T10:03:40.298Z,36.03
2022-12-19T10:07:16.109Z,33.10
2022-12-19T10:10:50.014Z,34.50
2022-12-19T10:12:46.001Z,34.00
2022-12-19T10:15:10.860Z,35.57
2022-12-19T10:17:57.064Z,34.60
2022-12-19T10:20:33.323Z,34.90
2022-12-19T10:23:25.066Z,35.13
2022-12-19T10:26:01.349Z,34.30
2022-12-19T10:28:46.186Z,33.07
2022-12-19T10:31:23.089Z,32.50
2022-12-19T10:33:59.369Z,38.27
2022-12-19T10:36:55.792Z,34.60
2022-12-19T10:39:27.009Z,34.47
2022-12-19T10:41:59.689Z,32.53
2022-12-19T10:44:31.404Z,32.43
2022-12-19T10:47:00.856Z,32.90
2022-12-19T10:49:34.034Z,32.13
2022-12-19T10:52:05.270Z,33.23
2022-12-19T10:54:42.950Z,30.70
2022-12-19T10:57:25.329Z,32.73
2022-12-19T10:59:58.155Z,32.40
2022-12-19T11:02:36.490Z,32.80
2022-12-19T11:05:06.908Z,33.73
2022-12-19T11:07:35.408Z,33.23
2022-12-19T11:10:35.723Z,33.67
2022-12-19T11:17:31.280Z,34.63
2022-12-19T11:18:34.041Z,33.37
2022-12-19T11:26:32.471Z,35.73
2022-12-19T11:29:34.802Z,31.40
2022-12-19T11:30:44.127Z,31.97
2022-12-19T11:30:46.606Z,31.50
2022-12-19T11:33:19.597Z,32.63
2022-12-19T11:35:51.100Z,31.80
2022-12-19T11:38:26.278Z,32.27
2022-12-19T11:41:00.124Z,32.00
2022-12-19T11:43:44.417Z,31.77
2022-12-19T11:46:25.127Z,31.30
2022-12-19T11:48:57.709Z,33.17
2022-12-19T11:51:33.421Z,34.50
2022-12-19T11:54:08.705Z,32.67
2022-12-19T11:56:36.835Z,33.87
2022-12-19T11:59:19.329Z,33.93
2022-12-19T12:02:03.130Z,32.53
2022-12-19T12:04:54.429Z,32.83
2022-12-19T12:08:36.611Z,29.10
2022-12-19T12:15:44.903Z,31.93
2022-12-19T12:21:58.270Z,32.77
2022-12-19T12:31:00.357Z,31.50
2022-12-19T12:31:07.084Z,32.13
2022-12-19T12:31:10.966Z,32.37
2022-12-19T12:31:44.719Z,30.97
2022-12-19T12:31:46.190Z,31.60
2022-12-19T12:35:57.121Z,32.90
2022-12-19T12:37:10.926Z,31.80
2022-12-19T12:41:09.154Z,32.50
2022-12-19T12:43:49.539Z,33.77
2022-12-19T12:46:24.312Z,32.17
2022-12-19T12:48:59.022Z,32.43
2022-12-19T12:51:27.812Z,34.27
2022-12-19T12:54:01.019Z,33.77
2022-12-19T12:56:30.673Z,37.63
2022-12-19T12:59:21.215Z,34.37
2022-12-19T13:01:54.058Z,33.67
2022-12-19T13:04:36.369Z,35.50
2022-12-19T13:07:28.027Z,32.37
2022-12-19T13:10:16.108Z,33.37
2022-12-19T13:13:02.664Z,36.67
2022-12-19T13:15:44.398Z,37.27
2022-12-19T13:18:32.083Z,34.87
2022-12-19T13:21:01.640Z,33.77
2022-12-19T13:24:15.905Z,34.97
2022-12-19T13:26:51.041Z,33.93
2022-12-19T13:29:54.350Z,33.83
2022-12-19T13:32:23.785Z,34.10
2022-12-19T13:34:59.862Z,34.67
2022-12-19T13:39:49.009Z,35.83
2022-12-19T13:40:53.122Z,35.00
2022-12-19T13:43:42.704Z,35.70
2022-12-19T13:46:30.018Z,37.23
2022-12-19T13:49:02.336Z,38.43
2022-12-19T13:51:43.483Z,37.53
2022-12-19T13:54:22.922Z,36.17
2022-12-19T13:56:54.459Z,35.80
2022-12-19T13:59:25.031Z,80.07
2022-12-19T14:01:55.522Z,49.43
2022-12-19T14:04:30.223Z,38.43
2022-12-19T14:07:02.923Z,33.47
2022-12-19T14:11:29.156Z,34.67
2022-12-19T14:13:48.255Z,32.77
2022-12-19T14:15:35.699Z,32.60
2022-12-19T14:18:44.308Z,33.03
2022-12-19T14:22:04.511Z,34.53
2022-12-19T14:24:13.079Z,34.93
2022-12-19T14:28:17.253Z,33.10
2022-12-19T14:30:25.887Z,32.87
2022-12-19T14:33:40.473Z,33.10
2022-12-19T14:36:12.036Z,32.93
2022-12-19T14:39:22.153Z,34.43
2022-12-19T14:41:07.979Z,37.40
2022-12-19T14:44:00.496Z,33.17
2022-12-19T14:53:34.045Z,34.87
2022-12-19T14:54:05.400Z,33.20
2022-12-19T14:54:52.483Z,33.80
2022-12-19T14:56:17.561Z,34.80
2022-12-19T14:58:52.656Z,36.63
2022-12-19T15:01:24.917Z,34.70
2022-12-19T15:04:51.192Z,36.77
2022-12-19T15:07:09.396Z,36.03
2022-12-19T15:11:00.283Z,36.80
2022-12-19T15:14:51.745Z,34.97
2022-12-19T15:15:55.132Z,35.87
2022-12-19T15:18:26.201Z,35.33
2022-12-19T15:20:56.869Z,40.27
2022-12-19T15:23:25.857Z,42.17
2022-12-19T15:26:06.127Z,46.27
2022-12-19T15:28:40.120Z,45.53
2022-12-19T15:31:19.728Z,55.83
2022-12-19T15:34:14.894Z,45.33
2022-12-19T15:36:38.542Z,45.60
2022-12-19T15:39:09.621Z,44.93
2022-12-19T15:41:39.079Z,45.00
2022-12-19T15:44:11.248Z,45.03
2022-12-19T15:46:44.700Z,45.03
2022-12-19T15:49:17.464Z,42.93
2022-12-19T15:51:45.763Z,53.20
2022-12-19T15:57:03.320Z,48.93
2022-12-19T15:59:38.121Z,48.27
2022-12-19T16:02:15.867Z,43.47
2022-12-19T16:04:47.369Z,43.93
2022-12-19T16:07:18.076Z,43.43
2022-12-19T16:09:46.675Z,43.00
2022-12-19T16:12:17.732Z,46.67
2022-12-19T16:14:46.900Z,52.23
2022-12-19T16:17:19.085Z,45.63
2022-12-19T16:19:47.123Z,43.23
2022-12-19T16:22:22.333Z,43.27
2022-12-19T16:24:51.016Z,41.93
2022-12-19T16:27:24.848Z,43.83
2022-12-19T16:29:53.577Z,43.67
2022-12-19T16:32:24.183Z,43.10
2022-12-19T16:34:54.272Z,45.83
2022-12-19T16:37:25.865Z,43.47
2022-12-19T16:39:58.283Z,42.57
2022-12-19T16:42:28.360Z,43.53
2022-12-19T16:44:59.062Z,44.97
2022-12-19T16:47:27.142Z,44.03
2022-12-19T16:49:55.227Z,41.77
2022-12-19T16:52:23.453Z,43.30
2022-12-19T16:54:51.517Z,42.20
2022-12-19T16:57:22.454Z,46.17
2022-12-19T16:59:52.153Z,61.10
2022-12-19T17:02:37.643Z,66.27
2022-12-19T17:05:06.415Z,43.30
2022-12-19T17:07:34.811Z,49.57
2022-12-19T17:10:02.885Z,42.70
2022-12-19T17:12:35.580Z,42.83
2022-12-19T17:15:06.552Z,44.93
2022-12-19T17:17:35.005Z,42.13
2022-12-19T17:20:03.233Z,42.03
2022-12-19T17:22:33.140Z,41.43
2022-12-19T17:25:01.313Z,42.50
2022-12-19T17:27:29.347Z,40.27
2022-12-19T17:29:59.987Z,43.80
2022-12-19T17:32:29.483Z,39.77
2022-12-19T17:34:57.627Z,42.53
2022-12-19T17:37:25.613Z,48.30
2022-12-19T17:39:53.643Z,45.30
2022-12-19T17:42:23.615Z,46.07
2022-12-19T17:44:51.947Z,44.23
2022-12-19T17:47:21.394Z,41.23
2022-12-19T17:49:51.087Z,36.73
2022-12-19T17:52:20.840Z,39.40
2022-12-19T17:54:49.117Z,40.00
2022-12-19T17:57:18.412Z,39.77
2022-12-19T17:59:48.317Z,37.60
2022-12-19T18:02:22.099Z,40.67
2022-12-19T18:04:53.075Z,38.47
2022-12-19T18:07:21.140Z,38.30
2022-12-19T18:09:49.189Z,36.53
2022-12-19T18:12:17.292Z,36.80
2022-12-19T18:14:47.166Z,37.63
2022-12-19T18:17:22.847Z,37.53
2022-12-19T18:19:52.481Z,35.07
2022-12-19T18:22:23.188Z,37.07
2022-12-19T18:24:51.137Z,34.93
2022-12-19T18:27:19.194Z,34.90
2022-12-19T18:29:47.195Z,34.80
2022-12-19T18:32:18.852Z,36.37
2022-12-19T18:34:48.812Z,37.77
2022-12-19T18:37:18.310Z,38.27
2022-12-19T18:39:46.418Z,36.60
2022-12-19T18:42:20.929Z,38.83
2022-12-19T18:44:49.108Z,39.77
2022-12-19T18:47:22.663Z,37.40
2022-12-19T18:49:52.727Z,38.67
2022-12-19T18:52:22.026Z,38.20
2022-12-19T18:54:49.968Z,38.00
2022-12-19T18:57:17.854Z,39.60
2022-12-19T18:59:45.973Z,39.00
2022-12-19T19:02:25.533Z,37.23
2022-12-19T19:04:55.627Z,44.00
2022-12-19T19:07:25.145Z,41.40
2022-12-19T19:09:53.199Z,43.37
2022-12-19T19:12:21.972Z,39.60
2022-12-19T19:14:49.867Z,40.70
2022-12-19T19:17:24.385Z,40.07
2022-12-19T19:19:52.450Z,39.03
2022-12-19T19:22:20.877Z,39.10
2022-12-19T19:24:50.515Z,39.53
2022-12-19T19:27:18.878Z,39.03
2022-12-19T19:29:46.878Z,35.33
2022-12-19T19:32:19.004Z,38.30
2022-12-19T19:34:47.224Z,38.20
2022-12-19T19:37:16.425Z,38.67
2022-12-19T19:39:44.879Z,36.20
2022-12-19T19:42:14.335Z,39.23
2022-12-19T19:44:42.358Z,36.50
2022-12-19T19:47:15.267Z,35.27
2022-12-19T19:49:46.000Z,36.80
2022-12-19T19:52:14.073Z,59.10
2022-12-19T19:54:42.206Z,53.97
2022-12-19T19:57:12.204Z,49.37
2022-12-19T19:59:41.763Z,46.90
2022-12-19T20:02:11.300Z,41.97
2022-12-19T20:04:40.026Z,42.13
2022-12-19T20:07:08.246Z,40.93
2022-12-19T20:09:36.260Z,40.37
2022-12-19T20:12:04.582Z,42.17
2022-12-19T20:14:35.219Z,42.20
2022-12-19T20:17:04.663Z,38.63
2022-12-19T20:19:35.859Z,39.50
2022-12-19T20:22:03.995Z,40.97
2022-12-19T20:24:34.763Z,39.77
2022-12-19T20:27:02.820Z,38.30
2022-12-19T20:29:30.833Z,38.10
2022-12-19T20:32:00.839Z,38.80
2022-12-19T20:34:33.869Z,37.43
2022-12-19T20:37:01.910Z,37.30
2022-12-19T20:39:30.364Z,37.27
2022-12-19T20:42:01.249Z,37.00
2022-12-19T20:44:29.440Z,37.30
2022-12-19T20:46:59.741Z,38.30
2022-12-19T20:49:29.312Z,36.00
2022-12-19T20:51:57.318Z,37.50
2022-12-19T20:54:27.090Z,36.97
2022-12-19T20:56:55.180Z,37.20
2022-12-19T20:59:23.447Z,36.00
2022-12-19T21:01:51.632Z,35.20
2022-12-19T21:04:21.906Z,35.23
2022-12-19T21:06:51.467Z,36.93
2022-12-19T21:09:19.347Z,35.03
2022-12-19T21:11:47.297Z,35.83
2022-12-19T21:14:15.297Z,37.70
2022-12-19T21:16:43.304Z,37.43
2022-12-19T21:19:11.477Z,37.73
2022-12-19T21:21:41.892Z,36.10
2022-12-19T21:24:11.359Z,34.37
2022-12-19T21:26:39.297Z,37.00
2022-12-19T21:29:10.324Z,35.50
2022-12-19T21:31:38.458Z,37.07
2022-12-19T21:34:06.464Z,35.20
2022-12-19T21:36:34.417Z,37.90
2022-12-19T21:39:03.033Z,36.90
2022-12-19T21:41:33.433Z,36.70
2022-12-19T21:44:01.681Z,35.30
2022-12-19T21:46:32.975Z,37.47
2022-12-19T21:49:02.549Z,34.93
2022-12-19T21:51:32.669Z,35.17
2022-12-19T21:54:02.394Z,34.43
2022-12-19T21:56:34.830Z,35.53
2022-12-19T21:59:04.764Z,33.73
2022-12-19T22:01:33.129Z,34.73
2022-12-19T22:04:02.032Z,34.43
2022-12-19T22:06:32.227Z,36.77
2022-12-19T22:09:01.247Z,34.97
2022-12-19T22:11:30.258Z,35.13
2022-12-19T22:14:00.241Z,35.40
2022-12-19T22:16:28.801Z,34.77
2022-12-19T22:18:56.944Z,36.07
2022-12-19T22:21:26.464Z,37.60
2022-12-19T22:23:58.325Z,37.40
2022-12-19T22:26:27.679Z,36.07
2022-12-19T22:28:56.924Z,37.83
2022-12-19T22:31:29.069Z,36.03
2022-12-19T22:34:01.547Z,36.90
2022-12-19T22:36:32.455Z,35.47
2022-12-19T22:39:01.878Z,36.30
2022-12-19T22:41:32.874Z,35.47
2022-12-19T22:44:01.023Z,35.63
2022-12-19T22:46:32.339Z,36.30
2022-12-19T22:49:02.771Z,35.13
2022-12-19T22:51:32.863Z,34.40
2022-12-19T22:54:01.813Z,35.23
2022-12-19T22:56:32.664Z,35.87
2022-12-19T22:59:01.942Z,35.93
2022-12-19T23:01:33.842Z,36.60
2022-12-19T23:04:03.785Z,35.03
2022-12-19T23:06:33.826Z,35.93
2022-12-19T23:09:02.473Z,36.57
2022-12-19T23:11:33.836Z,36.03
2022-12-19T23:14:02.981Z,35.37
2022-12-19T23:16:32.396Z,36.97
2022-12-19T23:19:00.885Z,35.27
2022-12-19T23:21:29.487Z,35.50
2022-12-19T23:24:00.783Z,35.77
2022-12-19T23:26:33.619Z,34.87
2022-12-19T23:29:04.005Z,35.57
2022-12-19T23:31:33.831Z,37.70
2022-12-19T23:34:02.427Z,33.20
2022-12-19T23:37:10.304Z,34.27
2022-12-19T23:39:19.478Z,35.03
2022-12-19T23:41:47.431Z,33.43
2022-12-19T23:44:15.768Z,32.67
2022-12-19T23:46:47.016Z,32.47
2022-12-19T23:49:15.663Z,32.57
2022-12-19T23:51:43.738Z,32.20
2022-12-19T23:54:13.376Z,32.00
2022-12-19T23:56:44.173Z,31.60
2022-12-19T23:59:12.144Z,33.03
